createdAt,value
2022-08-28T00:00:14.798Z,99600.42
2022-08-28T00:03:02.747Z,99599.00
2022-08-28T00:05:32.111Z,99598.36
2022-08-28T00:08:00.780Z,99601.16
2022-08-28T00:10:30.165Z,99597.86
2022-08-28T00:12:58.599Z,99596.69
2022-08-28T00:15:35.437Z,99598.52
2022-08-28T00:18:05.352Z,99596.39
2022-08-28T00:20:34.643Z,99596.33
2022-08-28T00:23:02.524Z,99593.54
2022-08-28T00:25:30.696Z,99586.54
2022-08-28T00:28:08.531Z,99592.67
2022-08-28T00:30:41.765Z,99588.93
2022-08-28T00:33:18.361Z,99587.66
2022-08-28T00:35:47.850Z,99585.91
2022-08-28T00:38:19.221Z,99584.56
2022-08-28T00:40:51.405Z,99587.59
2022-08-28T00:43:39.989Z,99588.23
2022-08-28T00:46:18.476Z,99584.58
2022-08-28T00:48:47.530Z,99588.87
2022-08-28T00:51:35.678Z,99582.90
2022-08-28T00:54:07.718Z,99582.81
2022-08-28T00:56:39.811Z,99583.20
2022-08-28T00:59:13.821Z,99585.52
2022-08-28T01:01:43.353Z,99583.54
2022-08-28T01:04:17.036Z,99581.31
2022-08-28T01:06:53.387Z,99583.98
2022-08-28T01:09:25.859Z,99582.30
2022-08-28T01:11:57.838Z,99588.19
2022-08-28T01:14:26.607Z,99585.48
2022-08-28T01:16:56.129Z,99590.35
2022-08-28T01:19:31.467Z,99588.20
2022-08-28T01:22:20.593Z,99586.69
2022-08-28T01:24:51.792Z,99589.71
2022-08-28T01:27:19.570Z,99586.86
2022-08-28T01:29:48.082Z,99586.88
2022-08-28T01:32:37.635Z,99584.98
2022-08-28T01:35:10.970Z,99586.35
2022-08-28T01:37:38.570Z,99586.68
2022-08-28T01:40:09.365Z,99585.96
2022-08-28T01:42:39.194Z,99582.50
2022-08-28T01:45:10.884Z,99581.94
2022-08-28T01:47:39.243Z,99582.41
2022-08-28T01:50:10.463Z,99582.75
2022-08-28T01:52:40.318Z,99583.55
2022-08-28T01:55:08.978Z,99585.58
2022-08-28T01:57:44.568Z,99586.56
2022-08-28T02:00:13.893Z,99587.77
2022-08-28T02:02:41.690Z,99586.03
2022-08-28T02:05:10.800Z,99587.66
2022-08-28T02:07:38.823Z,99587.04
2022-08-28T02:10:10.099Z,99587.40
2022-08-28T02:12:38.792Z,99585.97
2022-08-28T02:15:07.606Z,99582.81
2022-08-28T02:17:35.210Z,99582.42
2022-08-28T02:20:04.742Z,99579.09
2022-08-28T02:22:32.439Z,99576.87
2022-08-28T02:25:00.699Z,99576.88
2022-08-28T02:27:28.460Z,99580.00
2022-08-28T02:29:56.453Z,99579.70
2022-08-28T02:32:25.607Z,99577.56
2022-08-28T02:34:54.709Z,99576.55
2022-08-28T02:37:24.438Z,99574.64
2022-08-28T02:39:57.029Z,99572.75
2022-08-28T02:42:26.191Z,99572.83
2022-08-28T02:44:53.861Z,99573.64
2022-08-28T02:47:21.510Z,99574.68
2022-08-28T02:49:49.144Z,99575.49
2022-08-28T02:52:19.013Z,99575.41
2022-08-28T02:54:47.365Z,99573.13
2022-08-28T02:57:15.120Z,99576.73
2022-08-28T02:59:43.943Z,99574.20
2022-08-28T03:02:11.622Z,99574.70
2022-08-28T03:04:39.752Z,99573.83
2022-08-28T03:07:09.265Z,99571.46
2022-08-28T03:09:41.532Z,99571.48
2022-08-28T03:12:10.625Z,99564.82
2022-08-28T03:14:38.234Z,99569.12
2022-08-28T03:17:07.383Z,99567.23
2022-08-28T03:19:35.488Z,99567.30
2022-08-28T03:22:03.297Z,99564.52
2022-08-28T03:24:30.934Z,99569.77
2022-08-28T03:27:01.713Z,99568.27
2022-08-28T03:29:30.404Z,99567.01
2022-08-28T03:31:58.015Z,99565.66
2022-08-28T03:34:25.958Z,99567.20
2022-08-28T03:36:53.583Z,99568.23
2022-08-28T03:39:21.195Z,99568.40
2022-08-28T03:41:48.884Z,99569.42
2022-08-28T03:44:17.546Z,99569.84
2022-08-28T03:46:45.167Z,99569.21
2022-08-28T03:49:13.436Z,99566.30
2022-08-28T03:51:41.653Z,99567.79
2022-08-28T03:54:09.274Z,99566.20
2022-08-28T03:56:36.867Z,99565.31
2022-08-28T03:59:05.337Z,99566.98
2022-08-28T04:01:33.653Z,99565.17
2022-08-28T04:04:01.969Z,99567.73
2022-08-28T04:06:29.991Z,99568.44
2022-08-28T04:08:59.919Z,99573.60
2022-08-28T04:11:28.815Z,99573.13
2022-08-28T04:13:56.872Z,99575.51
2022-08-28T04:16:24.537Z,99577.33
2022-08-28T04:18:52.196Z,99582.41
2022-08-28T04:21:28.816Z,99580.89
2022-08-28T04:23:56.457Z,99581.77
2022-08-28T04:26:25.794Z,99584.55
2022-08-28T04:28:55.200Z,99588.05
2022-08-28T04:31:32.128Z,99587.42
2022-08-28T04:34:02.349Z,99590.17
2022-08-28T04:36:30.542Z,99591.38
2022-08-28T04:38:58.731Z,99586.60
2022-08-28T04:41:27.620Z,99583.77
2022-08-28T04:43:57.331Z,99577.02
2022-08-28T04:46:25.303Z,99574.78
2022-08-28T04:48:53.030Z,99577.92
2022-08-28T04:51:20.898Z,99582.85
2022-08-28T04:53:49.729Z,99582.85
2022-08-28T04:56:18.204Z,99583.70
2022-08-28T04:58:45.840Z,99584.33
2022-08-28T05:01:18.669Z,99584.38
2022-08-28T05:03:48.158Z,99585.88
2022-08-28T05:06:16.580Z,99582.59
2022-08-28T05:08:44.234Z,99582.57
2022-08-28T05:11:32.900Z,99584.61
2022-08-28T05:14:05.622Z,99586.50
2022-08-28T05:16:39.597Z,99590.77
2022-08-28T05:19:07.250Z,99586.44
2022-08-28T05:21:35.217Z,99579.98
2022-08-28T05:24:03.231Z,99584.80
2022-08-28T05:26:31.001Z,99583.02
2022-08-28T05:28:59.890Z,99587.36
2022-08-28T05:31:30.011Z,99587.55
2022-08-28T05:33:59.842Z,99588.77
2022-08-28T05:36:32.883Z,99590.21
2022-08-28T05:39:01.805Z,99588.12
2022-08-28T05:41:31.274Z,99593.13
2022-08-28T05:44:04.796Z,99590.94
2022-08-28T05:46:32.420Z,99591.42
2022-08-28T05:49:00.342Z,99593.14
2022-08-28T05:51:28.564Z,99593.95
2022-08-28T05:53:57.563Z,99593.42
2022-08-28T05:56:29.808Z,99596.56
2022-08-28T05:59:00.436Z,99592.05
2022-08-28T06:01:32.186Z,99590.55
2022-08-28T06:04:02.966Z,99588.88
2022-08-28T06:06:34.283Z,99589.19
2022-08-28T06:09:16.861Z,99592.29
2022-08-28T06:11:46.453Z,99589.50
2022-08-28T06:14:18.240Z,99591.02
2022-08-28T06:16:49.062Z,99587.35
2022-08-28T06:19:18.107Z,99593.09
2022-08-28T06:21:51.341Z,99594.67
2022-08-28T06:24:19.364Z,99591.23
2022-08-28T06:26:46.976Z,99590.20
2022-08-28T06:29:18.321Z,99591.29
2022-08-28T06:31:54.720Z,99592.06
2022-08-28T06:34:22.871Z,99591.72
2022-08-28T06:36:53.985Z,99593.63
2022-08-28T06:39:22.334Z,99592.98
2022-08-28T06:41:50.367Z,99592.27
2022-08-28T06:44:20.514Z,99588.03
2022-08-28T06:46:51.277Z,99589.02
2022-08-28T06:49:19.245Z,99587.39
2022-08-28T06:51:47.072Z,99591.61
2022-08-28T06:54:22.247Z,99588.06
2022-08-28T06:56:52.123Z,99588.80
2022-08-28T06:59:20.157Z,99590.75
2022-08-28T07:01:48.000Z,99591.66
2022-08-28T07:04:15.781Z,99594.23
2022-08-28T07:06:54.215Z,99598.72
2022-08-28T07:09:24.278Z,99593.68
2022-08-28T07:11:52.552Z,99594.75
2022-08-28T07:14:20.339Z,99591.73
2022-08-28T07:16:47.968Z,99587.29
2022-08-28T07:19:16.000Z,99583.35
2022-08-28T07:21:45.467Z,99583.41
2022-08-28T07:24:15.249Z,99592.55
2022-08-28T07:26:44.588Z,99589.61
2022-08-28T07:29:12.907Z,99592.70
2022-08-28T07:31:43.957Z,99592.73
2022-08-28T07:34:13.775Z,99588.07
2022-08-28T07:36:41.824Z,99595.05
2022-08-28T07:39:11.214Z,99594.89
2022-08-28T07:41:42.388Z,99595.52
2022-08-28T07:44:29.373Z,99596.44
2022-08-28T07:47:00.429Z,99591.28
2022-08-28T07:49:28.165Z,99586.74
2022-08-28T07:51:55.801Z,99585.64
2022-08-28T07:54:24.216Z,99584.92
2022-08-28T07:56:52.533Z,99585.84
2022-08-28T07:59:20.160Z,99587.70
2022-08-28T08:01:50.543Z,99590.11
2022-08-28T08:04:21.355Z,99590.98
2022-08-28T08:06:54.390Z,99590.62
2022-08-28T08:09:26.511Z,99586.12
2022-08-28T08:11:56.506Z,99589.12
2022-08-28T08:14:25.516Z,99582.42
2022-08-28T08:16:53.577Z,99582.09
2022-08-28T08:19:21.361Z,99583.38
2022-08-28T08:21:53.194Z,99590.13
2022-08-28T08:24:26.707Z,99595.08
2022-08-28T08:26:59.901Z,99595.34
2022-08-28T08:29:31.734Z,99595.02
2022-08-28T08:32:05.740Z,99598.02
2022-08-28T08:34:36.523Z,99595.39
2022-08-28T08:37:05.795Z,99596.15
2022-08-28T08:39:34.999Z,99596.17
2022-08-28T08:42:06.852Z,99595.74
2022-08-28T08:44:40.243Z,99590.83
2022-08-28T08:47:26.491Z,99591.83
2022-08-28T08:49:57.081Z,99585.55
2022-08-28T08:52:31.062Z,99581.35
2022-08-28T08:55:23.343Z,99582.05
2022-08-28T08:57:59.432Z,99586.20
2022-08-28T09:00:28.995Z,99589.77
2022-08-28T09:03:04.919Z,99591.24
2022-08-28T09:05:55.913Z,99596.60
2022-08-28T09:08:48.808Z,99598.64
2022-08-28T09:11:44.239Z,99600.42
2022-08-28T09:14:32.878Z,99601.50
2022-08-28T09:17:01.581Z,99605.29
2022-08-28T09:19:29.870Z,99604.00
2022-08-28T09:21:57.618Z,99600.59
2022-08-28T09:24:28.967Z,99600.46
2022-08-28T09:26:59.064Z,99593.44
2022-08-28T09:29:37.300Z,99598.70
2022-08-28T09:32:18.419Z,99595.61
2022-08-28T09:35:06.285Z,99599.63
2022-08-28T09:37:36.196Z,99603.17
2022-08-28T09:40:25.290Z,99604.23
2022-08-28T09:43:31.631Z,99603.06
2022-08-28T09:46:04.552Z,99606.80
2022-08-28T09:48:43.241Z,99604.35
2022-08-28T09:51:14.488Z,99605.98
2022-08-28T09:54:02.084Z,99608.79
2022-08-28T09:56:36.076Z,99607.10
2022-08-28T09:59:23.968Z,99611.36
2022-08-28T10:02:10.553Z,99609.25
2022-08-28T10:05:07.724Z,99608.70
2022-08-28T10:07:57.738Z,99603.92
2022-08-28T10:10:53.759Z,99605.56
2022-08-28T10:13:40.124Z,99604.33
2022-08-28T10:16:09.704Z,99600.47
2022-08-28T10:18:48.603Z,99600.93
2022-08-28T10:21:48.208Z,99595.35
2022-08-28T10:24:47.989Z,99590.86
2022-08-28T10:27:48.317Z,99589.34
2022-08-28T10:30:21.613Z,99582.09
2022-08-28T10:33:08.276Z,99579.34
2022-08-28T10:36:07.835Z,99582.36
2022-08-28T10:39:17.792Z,99581.90
2022-08-28T10:41:54.047Z,99588.73
2022-08-28T10:44:31.701Z,99590.94
2022-08-28T10:47:00.339Z,99588.02
2022-08-28T10:49:31.386Z,99590.09
2022-08-28T10:52:18.075Z,99588.81
2022-08-28T10:54:54.983Z,99586.92
2022-08-28T10:57:44.522Z,99584.48
2022-08-28T11:00:17.622Z,99584.63
2022-08-28T11:02:49.972Z,99584.08
2022-08-28T11:05:23.518Z,99585.81
2022-08-28T11:07:56.382Z,99584.69
2022-08-28T11:10:39.929Z,99590.58
2022-08-28T11:13:10.287Z,99588.52
2022-08-28T11:15:41.710Z,99584.73
2022-08-28T11:18:19.101Z,99587.70
2022-08-28T11:21:16.643Z,99586.98
2022-08-28T11:23:55.968Z,99585.70
2022-08-28T11:26:33.876Z,99582.48
2022-08-28T11:29:04.102Z,99581.05
2022-08-28T11:31:36.029Z,99580.73
2022-08-28T11:34:05.574Z,99581.03
2022-08-28T11:36:33.174Z,99590.02
2022-08-28T11:39:20.824Z,99589.79
2022-08-28T11:42:10.278Z,99584.81
2022-08-28T11:44:44.758Z,99587.80
2022-08-28T11:47:34.440Z,99589.75
2022-08-28T11:50:30.748Z,99590.14
2022-08-28T11:53:14.111Z,99588.91
2022-08-28T11:55:47.640Z,99590.69
2022-08-28T11:58:26.383Z,99593.96
2022-08-28T12:01:04.359Z,99598.86
2022-08-28T12:03:53.785Z,99596.99
2022-08-28T12:06:52.817Z,99598.84
2022-08-28T12:09:26.175Z,99600.14
2022-08-28T12:11:57.466Z,99604.31
2022-08-28T12:14:25.030Z,99600.13
2022-08-28T12:16:58.709Z,99601.24
2022-08-28T12:19:58.920Z,99595.90
2022-08-28T12:22:43.845Z,99596.15
2022-08-28T12:25:24.754Z,99594.13
2022-08-28T12:27:53.791Z,99595.65
2022-08-28T12:30:37.427Z,99594.34
2022-08-28T12:33:20.504Z,99594.21
2022-08-28T12:35:49.723Z,99591.54
2022-08-28T12:38:21.900Z,99590.13
2022-08-28T12:40:50.899Z,99580.48
2022-08-28T12:43:32.241Z,99579.91
2022-08-28T12:46:04.300Z,99577.28
2022-08-28T12:48:50.724Z,99588.36
2022-08-28T12:51:24.554Z,99585.05
2022-08-28T12:53:55.450Z,99578.65
2022-08-28T12:56:25.899Z,99573.88
2022-08-28T12:58:53.501Z,99570.70
2022-08-28T13:01:21.359Z,99568.30
2022-08-28T13:03:52.323Z,99563.61
2022-08-28T13:06:37.742Z,99561.40
2022-08-28T13:09:17.016Z,99563.86
2022-08-28T13:11:49.036Z,99563.36
2022-08-28T13:14:36.782Z,99560.20
2022-08-28T13:17:05.389Z,99558.65
2022-08-28T13:19:34.881Z,99558.20
2022-08-28T13:22:08.563Z,99556.58
2022-08-28T13:24:39.086Z,99556.22
2022-08-28T13:27:12.192Z,99556.84
2022-08-28T13:29:57.160Z,99557.52
2022-08-28T13:32:30.785Z,99555.70
2022-08-28T13:35:21.407Z,99551.27
2022-08-28T13:37:58.814Z,99550.55
2022-08-28T13:40:57.567Z,99544.49
2022-08-28T13:43:30.296Z,99549.58
2022-08-28T13:45:58.126Z,99546.88
2022-08-28T13:48:27.410Z,99548.17
2022-08-28T13:51:05.137Z,99542.52
2022-08-28T13:53:39.049Z,99545.42
2022-08-28T13:56:07.311Z,99543.73
2022-08-28T13:58:35.006Z,99539.96
2022-08-28T14:01:02.825Z,99540.45
2022-08-28T14:03:37.529Z,99543.56
2022-08-28T14:06:11.460Z,99541.32
2022-08-28T14:08:40.971Z,99544.06
2022-08-28T14:11:11.867Z,99542.11
2022-08-28T14:13:47.444Z,99549.51
2022-08-28T14:16:25.294Z,99548.23
2022-08-28T14:18:53.788Z,99543.50
2022-08-28T14:21:24.336Z,99541.52
2022-08-28T14:23:51.950Z,99544.63
2022-08-28T14:26:19.537Z,99540.29
2022-08-28T14:28:47.178Z,99544.73
2022-08-28T14:31:15.502Z,99543.39
2022-08-28T14:33:45.042Z,99544.02
2022-08-28T14:36:16.210Z,99543.82
2022-08-28T14:38:44.101Z,99536.95
2022-08-28T14:41:12.302Z,99528.77
2022-08-28T14:43:43.504Z,99525.39
2022-08-28T14:46:16.781Z,99525.79
2022-08-28T14:48:45.242Z,99520.85
2022-08-28T14:51:14.371Z,99523.85
2022-08-28T14:53:42.250Z,99521.46
2022-08-28T14:56:10.765Z,99522.84
2022-08-28T14:58:39.023Z,99521.73
2022-08-28T15:01:07.084Z,99522.45
2022-08-28T15:03:35.816Z,99525.27
2022-08-28T15:06:09.278Z,99523.41
2022-08-28T15:08:38.066Z,99527.83
2022-08-28T15:11:14.207Z,99530.55
2022-08-28T15:13:46.791Z,99531.64
2022-08-28T15:16:29.310Z,99533.66
2022-08-28T15:18:59.413Z,99533.72
2022-08-28T15:21:32.505Z,99538.36
2022-08-28T15:24:03.027Z,99536.77
2022-08-28T15:26:31.592Z,99540.36
2022-08-28T15:29:03.283Z,99541.23
2022-08-28T15:31:33.580Z,99539.64
2022-08-28T15:34:13.341Z,99538.45
2022-08-28T15:36:43.902Z,99541.48
2022-08-28T15:39:29.091Z,99540.31
2022-08-28T15:41:57.993Z,99538.00
2022-08-28T15:44:26.244Z,99542.55
2022-08-28T15:46:56.649Z,99547.42
2022-08-28T15:49:26.878Z,99552.81
2022-08-28T15:51:54.595Z,99550.98
2022-08-28T15:54:23.721Z,99555.27
2022-08-28T15:56:53.869Z,99554.95
2022-08-28T15:59:22.706Z,99553.93
2022-08-28T16:01:53.225Z,99552.17
2022-08-28T16:04:20.983Z,99548.15
2022-08-28T16:06:48.773Z,99545.83
2022-08-28T16:09:24.437Z,99546.88
2022-08-28T16:11:52.086Z,99541.10
2022-08-28T16:14:21.151Z,99538.52
2022-08-28T16:16:50.823Z,99536.59
2022-08-28T16:19:18.818Z,99535.59
2022-08-28T16:21:46.448Z,99533.41
2022-08-28T16:24:14.471Z,99531.98
2022-08-28T16:26:42.273Z,99530.77
2022-08-28T16:29:09.883Z,99535.10
2022-08-28T16:31:37.832Z,99536.38
2022-08-28T16:34:06.809Z,99537.86
2022-08-28T16:36:38.509Z,99549.94
2022-08-28T16:39:10.734Z,99548.14
2022-08-28T16:41:39.015Z,99548.08
2022-08-28T16:44:06.797Z,99550.34
2022-08-28T16:46:34.601Z,99549.73
2022-08-28T16:49:03.014Z,99554.23
2022-08-28T16:51:30.845Z,99553.92
2022-08-28T16:53:58.528Z,99548.98
2022-08-28T16:56:26.709Z,99553.14
2022-08-28T16:58:55.402Z,99552.91
2022-08-28T17:01:24.631Z,99559.35
2022-08-28T17:03:54.527Z,99559.98
2022-08-28T17:06:29.238Z,99558.87
2022-08-28T17:08:57.776Z,99556.93
2022-08-28T17:11:26.853Z,99561.52
2022-08-28T17:13:55.470Z,99564.16
2022-08-28T17:16:26.020Z,99564.70
2022-08-28T17:18:53.756Z,99567.33
2022-08-28T17:21:37.503Z,99568.41
2022-08-28T17:24:05.396Z,99585.58
2022-08-28T17:26:33.159Z,99582.77
2022-08-28T17:29:00.794Z,99584.67
2022-08-28T17:31:28.552Z,99589.02
2022-08-28T17:33:56.175Z,99591.96
2022-08-28T17:36:33.177Z,99596.40
2022-08-28T17:39:04.386Z,99598.29
2022-08-28T17:41:33.406Z,99599.30
2022-08-28T17:44:02.367Z,99602.02
2022-08-28T17:46:34.088Z,99602.58
2022-08-28T17:49:07.380Z,99606.31
2022-08-28T17:51:43.213Z,99611.27
2022-08-28T17:54:18.217Z,99618.16
2022-08-28T17:56:46.325Z,99621.77
2022-08-28T17:59:15.405Z,99627.17
2022-08-28T18:01:44.884Z,99633.48
2022-08-28T18:04:17.979Z,99642.18
2022-08-28T18:06:51.595Z,99648.52
2022-08-28T18:09:19.650Z,99655.44
2022-08-28T18:11:47.287Z,99659.66
2022-08-28T18:14:14.996Z,99662.72
2022-08-28T18:16:43.080Z,99664.45
2022-08-28T18:19:11.850Z,99665.59
2022-08-28T18:21:41.034Z,99662.83
2022-08-28T18:24:12.815Z,99664.88
2022-08-28T18:26:41.262Z,99656.51
2022-08-28T18:29:10.284Z,99654.20
2022-08-28T18:31:38.015Z,99656.00
2022-08-28T18:34:06.288Z,99655.00
2022-08-28T18:36:39.803Z,99656.98
2022-08-28T18:39:07.805Z,99659.84
2022-08-28T18:41:43.234Z,99663.68
2022-08-28T18:44:15.140Z,99662.80
2022-08-28T18:46:44.412Z,99663.05
2022-08-28T18:49:12.687Z,99652.24
2022-08-28T18:51:43.326Z,99650.21
2022-08-28T18:54:14.618Z,99650.86
2022-08-28T18:56:45.683Z,99645.95
2022-08-28T18:59:13.447Z,99643.63
2022-08-28T19:01:42.049Z,99643.54
2022-08-28T19:04:09.850Z,99641.46
2022-08-28T19:06:38.044Z,99639.32
2022-08-28T19:09:06.342Z,99647.09
2022-08-28T19:11:35.738Z,99649.14
2022-08-28T19:14:03.789Z,99658.39
2022-08-28T19:16:32.190Z,99660.31
2022-08-28T19:19:03.211Z,99657.06
2022-08-28T19:21:32.221Z,99658.75
2022-08-28T19:24:00.032Z,99660.73
2022-08-28T19:26:27.709Z,99660.23
2022-08-28T19:28:56.065Z,99665.20
2022-08-28T19:31:26.544Z,99669.32
2022-08-28T19:33:54.450Z,99673.80
2022-08-28T19:36:22.593Z,99678.68
2022-08-28T19:38:50.669Z,99682.20
2022-08-28T19:41:18.640Z,99685.77
2022-08-28T19:43:46.218Z,99686.66
2022-08-28T19:46:19.665Z,99689.81
2022-08-28T19:48:50.233Z,99695.05
2022-08-28T19:51:22.863Z,99693.46
2022-08-28T19:53:57.713Z,99695.41
2022-08-28T19:56:32.307Z,99696.66
2022-08-28T19:59:02.037Z,99700.84
2022-08-28T20:01:36.560Z,99705.17
2022-08-28T20:04:06.531Z,99715.77
2022-08-28T20:06:35.691Z,99737.34
2022-08-28T20:09:08.313Z,99760.02
2022-08-28T20:11:41.994Z,99799.30
2022-08-28T20:14:09.978Z,99800.26
2022-08-28T20:16:40.420Z,99791.26
2022-08-28T20:30:54.998Z,99758.31
2022-08-28T20:33:22.742Z,99761.14
2022-08-28T20:36:03.012Z,99764.02
2022-08-28T20:38:32.235Z,99765.02
2022-08-28T20:41:18.233Z,99770.27
2022-08-28T20:43:47.178Z,99780.80
2022-08-28T20:46:19.741Z,99783.77
2022-08-28T20:48:47.621Z,99789.02
2022-08-28T20:51:15.248Z,99790.23
2022-08-28T20:53:42.886Z,99782.21
2022-08-28T20:56:10.622Z,99776.41
2022-08-28T20:58:38.386Z,99775.54
2022-08-28T21:01:06.238Z,99772.92
2022-08-28T21:03:34.072Z,99773.17
2022-08-28T21:06:01.873Z,99776.85
2022-08-28T21:08:29.473Z,99779.24
2022-08-28T21:10:57.066Z,99798.27
2022-08-28T21:13:24.764Z,99811.78
2022-08-28T21:15:52.481Z,99823.07
2022-08-28T21:18:20.102Z,99831.02
2022-08-28T21:20:48.097Z,99853.38
2022-08-28T21:23:15.748Z,99868.02
2022-08-28T21:25:43.397Z,99852.74
2022-08-28T21:28:11.050Z,99832.63
2022-08-28T21:30:41.436Z,99830.23
2022-08-28T21:33:09.195Z,99843.42
2022-08-28T21:35:36.832Z,99845.73
2022-08-28T21:38:05.090Z,99853.52
2022-08-28T21:40:35.144Z,99853.05
2022-08-28T21:43:02.916Z,99853.61
2022-08-28T21:45:30.526Z,99864.82
2022-08-28T21:47:58.474Z,99875.23
2022-08-28T21:50:29.081Z,99880.48
2022-08-28T21:52:56.779Z,99867.28
2022-08-28T21:55:24.876Z,99861.08
2022-08-28T21:57:52.460Z,99858.45
2022-08-28T22:00:23.418Z,99859.25
2022-08-28T22:02:51.366Z,99858.77
2022-08-28T22:05:19.823Z,99855.27
2022-08-28T22:07:48.132Z,99852.56
2022-08-28T22:10:15.865Z,99843.10
2022-08-28T22:12:43.511Z,99836.34
2022-08-28T22:15:11.343Z,99831.02
2022-08-28T22:17:38.952Z,99827.36
2022-08-28T22:20:07.008Z,99824.18
2022-08-28T22:22:50.662Z,99827.76
2022-08-28T22:25:18.322Z,99832.92
2022-08-28T22:27:45.906Z,99834.36
2022-08-28T22:30:13.669Z,99825.77
2022-08-28T22:32:41.298Z,99825.54
2022-08-28T22:35:10.414Z,99818.94
2022-08-28T22:37:38.104Z,99816.30
2022-08-28T22:40:09.464Z,99810.73
2022-08-28T22:42:41.542Z,99804.45
2022-08-28T22:45:10.142Z,99802.61
2022-08-28T22:47:38.444Z,99799.59
2022-08-28T22:50:06.916Z,99793.80
2022-08-28T22:52:34.733Z,99792.29
2022-08-28T22:55:02.659Z,99787.52
2022-08-28T22:57:34.429Z,99776.64
2022-08-28T23:00:04.452Z,99766.70
2022-08-28T23:02:32.654Z,99765.11
2022-08-28T23:05:00.461Z,99760.10
2022-08-28T23:07:28.216Z,99758.12
2022-08-28T23:09:56.623Z,99761.68
2022-08-28T23:12:24.607Z,99759.95
2022-08-28T23:14:53.114Z,99761.37
2022-08-28T23:17:20.730Z,99759.87
2022-08-28T23:19:48.503Z,99761.61
2022-08-28T23:22:17.703Z,99757.55
2022-08-28T23:24:46.791Z,99754.04
2022-08-28T23:27:35.275Z,99754.02
2022-08-28T23:30:05.754Z,99752.67
2022-08-28T23:32:34.072Z,99745.11
2022-08-28T23:35:02.118Z,99734.00
2022-08-28T23:37:36.978Z,99721.61
2022-08-28T23:40:12.616Z,99716.54
2022-08-28T23:42:41.283Z,99725.20
2022-08-28T23:45:10.582Z,99733.01
2022-08-28T23:47:40.406Z,99732.21
2022-08-28T23:50:12.470Z,99737.06
2022-08-28T23:52:40.285Z,99739.13
2022-08-28T23:55:09.675Z,99746.04
2022-08-28T23:57:38.537Z,99744.21
